createdAt,value
2022-11-30T05:03:36.161Z,77.02
2022-11-30T05:07:40.534Z,76.38
2022-11-30T05:11:43.448Z,76.43
2022-11-30T05:15:46.670Z,76.80
2022-11-30T05:19:50.689Z,76.55
2022-11-30T05:23:53.343Z,76.38
2022-11-30T05:27:55.952Z,76.73
2022-11-30T05:31:58.553Z,76.50
2022-11-30T05:36:05.924Z,76.31
2022-11-30T05:40:13.853Z,76.31
2022-11-30T05:44:16.314Z,76.43
2022-11-30T05:48:19.118Z,76.43
2022-11-30T05:52:23.158Z,76.69
2022-11-30T05:56:25.866Z,76.79
2022-11-30T06:00:28.510Z,76.51
2022-11-30T06:04:31.329Z,76.38
2022-11-30T06:08:35.305Z,76.26
2022-11-30T06:12:37.933Z,76.20
2022-11-30T06:16:40.970Z,76.34
2022-11-30T06:20:43.760Z,76.78
2022-11-30T06:24:47.785Z,76.29
2022-11-30T06:28:50.506Z,76.36
2022-11-30T06:32:53.549Z,76.54
2022-11-30T06:36:58.388Z,76.13
2022-11-30T06:41:06.685Z,76.40
2022-11-30T06:45:10.623Z,76.86
2022-11-30T06:49:13.251Z,76.91
2022-11-30T06:53:15.825Z,76.85
2022-11-30T06:57:19.840Z,77.01
2022-11-30T07:01:22.672Z,77.08
2022-11-30T07:05:25.328Z,76.98
2022-11-30T07:09:28.127Z,77.06
2022-11-30T07:13:32.143Z,76.90
2022-11-30T07:17:34.784Z,76.87
2022-11-30T07:21:37.421Z,76.53
2022-11-30T07:25:57.492Z,76.73
2022-11-30T07:30:01.536Z,76.45
2022-11-30T07:34:06.737Z,76.52
2022-11-30T07:38:10.041Z,76.29
2022-11-30T07:42:12.708Z,76.08
2022-11-30T07:46:17.671Z,76.31
2022-11-30T07:50:20.305Z,76.13
2022-11-30T07:54:22.963Z,76.07
2022-11-30T07:58:25.573Z,76.78
2022-11-30T08:02:29.645Z,76.77
2022-11-30T08:06:32.761Z,76.81
2022-11-30T08:10:35.549Z,76.53
2022-11-30T08:15:11.103Z,76.05
2022-11-30T08:19:02.117Z,75.88
2022-11-30T08:23:04.800Z,76.20
2022-11-30T08:27:07.440Z,76.19
2022-11-30T08:31:13.113Z,76.22
2022-11-30T08:35:17.281Z,76.29
2022-11-30T08:39:19.957Z,75.75
2022-11-30T08:43:22.546Z,76.02
2022-11-30T08:47:25.281Z,75.92
2022-11-30T08:51:42.170Z,75.94
2022-11-30T08:55:58.664Z,75.87
2022-11-30T09:00:01.275Z,75.82
2022-11-30T09:04:03.943Z,75.59
2022-11-30T09:08:08.011Z,75.25
2022-11-30T09:12:10.703Z,74.85
2022-11-30T09:16:15.133Z,74.24
2022-11-30T09:20:18.040Z,74.19
2022-11-30T09:24:22.007Z,73.87
2022-11-30T09:28:24.979Z,73.78
2022-11-30T09:32:28.527Z,73.12
2022-11-30T09:36:32.914Z,73.15
2022-11-30T09:40:39.333Z,73.42
2022-11-30T09:44:53.277Z,73.38
2022-11-30T09:49:03.498Z,73.23
2022-11-30T09:53:12.604Z,73.23
2022-11-30T09:57:26.444Z,72.76
2022-11-30T10:01:32.725Z,72.33
2022-11-30T10:05:46.512Z,71.45
2022-11-30T10:10:23.886Z,71.47
2022-11-30T10:14:45.817Z,71.43
2022-11-30T10:18:56.057Z,70.78
2022-11-30T10:23:13.208Z,71.04
2022-11-30T10:27:18.894Z,70.77
2022-11-30T10:31:36.109Z,70.41
2022-11-30T10:35:42.317Z,70.85
2022-11-30T10:39:53.950Z,70.94
2022-11-30T10:44:03.911Z,71.45
2022-11-30T10:48:16.073Z,71.61
2022-11-30T10:52:23.234Z,72.07
2022-11-30T10:56:26.641Z,71.64
2022-11-30T11:00:29.262Z,71.39
2022-11-30T11:04:33.265Z,72.11
2022-11-30T11:08:36.347Z,72.34
2022-11-30T11:12:39.084Z,72.36
2022-11-30T11:16:56.899Z,72.03
2022-11-30T11:21:07.354Z,71.00
2022-11-30T11:25:20.286Z,71.42
2022-11-30T11:29:32.166Z,71.68
2022-11-30T11:33:34.816Z,72.68
2022-11-30T11:37:41.543Z,72.50
2022-11-30T11:41:44.196Z,73.29
2022-11-30T11:45:52.948Z,74.35
2022-11-30T11:50:09.282Z,74.17
2022-11-30T11:54:23.429Z,74.36
2022-11-30T11:58:36.369Z,74.43
2022-11-30T12:02:50.662Z,74.43
2022-11-30T12:06:56.640Z,74.90
2022-11-30T12:11:05.803Z,74.46
2022-11-30T12:15:12.280Z,74.56
2022-11-30T12:19:21.591Z,75.18
2022-11-30T12:23:44.032Z,75.15
2022-11-30T12:27:57.060Z,75.21
2022-11-30T12:32:17.550Z,75.29
2022-11-30T12:36:30.443Z,75.10
2022-11-30T12:40:42.340Z,74.93
2022-11-30T12:44:57.634Z,75.43
2022-11-30T12:49:13.550Z,75.87
2022-11-30T12:53:23.647Z,75.98
2022-11-30T12:57:31.435Z,75.69
2022-11-30T13:01:49.495Z,76.12
2022-11-30T13:05:58.118Z,76.33
2022-11-30T13:10:07.950Z,76.62
2022-11-30T13:14:14.953Z,76.99
2022-11-30T13:18:21.025Z,77.00
2022-11-30T13:22:27.854Z,76.57
2022-11-30T13:26:35.274Z,76.37
2022-11-30T13:30:43.487Z,76.69
2022-11-30T13:34:47.710Z,76.72
2022-11-30T13:39:10.078Z,75.83
2022-11-30T13:43:19.174Z,75.08
2022-11-30T13:47:30.134Z,74.78
2022-11-30T13:51:39.773Z,74.37
2022-11-30T13:56:00.577Z,74.04
2022-11-30T14:00:25.111Z,74.12
2022-11-30T14:04:32.898Z,73.96
2022-11-30T14:08:39.060Z,74.13
2022-11-30T14:13:00.659Z,74.35
2022-11-30T14:17:03.557Z,74.30
2022-11-30T14:21:16.607Z,74.56
2022-11-30T14:25:22.046Z,74.29
2022-11-30T14:29:28.948Z,74.30
2022-11-30T14:33:42.499Z,74.45
2022-11-30T14:37:47.846Z,74.21
2022-11-30T14:41:51.996Z,73.80
2022-11-30T14:46:04.670Z,73.79
2022-11-30T14:50:23.610Z,73.73
2022-11-30T14:54:48.387Z,74.48
2022-11-30T14:58:58.894Z,74.40
2022-11-30T15:03:01.612Z,74.87
2022-11-30T15:07:04.455Z,75.39
2022-11-30T15:11:09.289Z,75.33
2022-11-30T15:15:18.914Z,75.39
2022-11-30T15:19:24.438Z,75.73
2022-11-30T15:23:27.694Z,75.93
2022-11-30T15:27:30.592Z,76.50
2022-11-30T15:31:38.310Z,76.13
2022-11-30T15:36:13.850Z,76.91
2022-11-30T15:40:11.550Z,76.34
2022-11-30T15:44:25.037Z,76.31
2022-11-30T15:48:31.848Z,76.51
2022-11-30T15:52:34.671Z,76.54
2022-11-30T15:56:37.896Z,76.65
2022-11-30T16:00:40.540Z,76.46
2022-11-30T16:05:13.792Z,76.63
2022-11-30T16:09:23.767Z,76.63
2022-11-30T16:13:31.200Z,76.51
2022-11-30T16:17:33.928Z,76.20
2022-11-30T16:21:38.014Z,76.05
2022-11-30T16:25:42.018Z,75.86
2022-11-30T16:29:49.111Z,76.08
2022-11-30T16:33:54.563Z,75.31
2022-11-30T16:37:58.519Z,75.42
2022-11-30T16:42:01.124Z,75.09
2022-11-30T16:46:03.813Z,74.96
2022-11-30T16:50:08.243Z,75.23
2022-11-30T16:54:14.147Z,75.58
2022-11-30T16:58:16.746Z,75.24
2022-11-30T17:02:24.573Z,75.39
2022-11-30T17:06:27.738Z,74.51
2022-11-30T17:10:31.795Z,74.88
2022-11-30T17:14:34.416Z,74.65
2022-11-30T17:18:37.114Z,74.66
2022-11-30T17:22:40.124Z,75.19
2022-11-30T17:26:44.116Z,75.13
2022-11-30T17:30:46.821Z,75.32
2022-11-30T17:34:49.829Z,75.32
2022-11-30T17:38:52.696Z,75.32
2022-11-30T17:42:56.657Z,75.62
2022-11-30T17:46:59.256Z,75.26
2022-11-30T17:51:02.349Z,75.63
2022-11-30T17:55:05.345Z,75.46
2022-11-30T17:59:09.663Z,75.22
2022-11-30T18:03:12.307Z,75.55
2022-11-30T18:07:14.999Z,75.66
2022-11-30T18:11:20.214Z,75.43
2022-11-30T18:15:24.188Z,75.79
2022-11-30T18:19:26.875Z,75.36
2022-11-30T18:23:29.501Z,75.35
2022-11-30T18:27:32.097Z,74.88
2022-11-30T18:31:37.228Z,74.70
2022-11-30T18:35:39.828Z,74.78
2022-11-30T18:39:42.584Z,74.92
2022-11-30T18:43:45.221Z,74.43
2022-11-30T18:48:22.556Z,74.48
2022-11-30T18:52:26.555Z,74.51
2022-11-30T18:56:30.332Z,74.84
2022-11-30T19:00:32.951Z,74.77
2022-11-30T19:04:35.538Z,74.84
2022-11-30T19:08:40.883Z,75.36
2022-11-30T19:12:44.605Z,75.81
2022-11-30T19:16:47.822Z,76.01
2022-11-30T19:20:50.850Z,76.17
2022-11-30T19:24:54.788Z,76.40
2022-11-30T19:28:58.471Z,76.22
2022-11-30T19:33:01.068Z,76.57
2022-11-30T19:37:03.674Z,76.64
2022-11-30T19:41:08.793Z,76.37
2022-11-30T19:45:11.969Z,76.02
2022-11-30T19:49:14.556Z,76.06
2022-11-30T19:53:17.150Z,76.30
2022-11-30T19:57:21.165Z,76.27
2022-11-30T20:01:25.462Z,76.55
2022-11-30T20:05:28.533Z,76.65
2022-11-30T20:09:31.115Z,77.03
2022-11-30T20:13:35.100Z,77.04
2022-11-30T20:17:37.740Z,77.02
2022-11-30T20:21:40.351Z,77.08
2022-11-30T20:25:42.963Z,76.87
2022-11-30T20:29:46.899Z,76.58
2022-11-30T20:33:50.220Z,76.04
2022-11-30T20:37:53.062Z,76.18
2022-11-30T20:41:55.701Z,75.96
2022-11-30T20:45:59.750Z,75.54
2022-11-30T20:50:02.418Z,75.65
2022-11-30T20:54:07.422Z,76.11
2022-11-30T20:58:10.009Z,76.23
2022-11-30T21:02:14.077Z,76.69
2022-11-30T21:06:17.644Z,76.54
2022-11-30T21:10:20.763Z,76.25
2022-11-30T21:14:23.335Z,76.44
2022-11-30T21:18:27.327Z,76.67
2022-11-30T21:22:30.087Z,76.86
2022-11-30T21:26:34.421Z,77.06
2022-11-30T21:30:39.318Z,77.11
2022-11-30T21:34:43.330Z,77.26
2022-11-30T21:38:45.981Z,77.29
2022-11-30T21:42:48.635Z,77.56
2022-11-30T21:46:51.627Z,78.09
2022-11-30T21:51:00.474Z,78.21
2022-11-30T21:55:03.103Z,78.00
2022-11-30T21:59:07.282Z,78.33
